sensor_id;sensor_type;location;lat;lon;timestamp;P1;durP1;ratioP1;P2;durP2;ratioP2
35114;SDS011;21292;52.416;13.046;2023-05-10T00:01:16;7.15;;;5.47;;
35114;SDS011;21292;52.416;13.046;2023-05-10T00:03:45;12.20;;;5.70;;
35114;SDS011;21292;52.416;13.046;2023-05-10T00:06:15;9.65;;;5.25;;
35114;SDS011;21292;52.416;13.046;2023-05-10T00:08:44;7.13;;;5.20;;
35114;SDS011;21292;52.416;13.046;2023-05-10T00:11:14;7.28;;;5.60;;
35114;SDS011;21292;52.416;13.046;2023-05-10T00:13:43;8.40;;;5.50;;
35114;SDS011;21292;52.416;13.046;2023-05-10T00:16:12;6.45;;;5.22;;
35114;SDS011;21292;52.416;13.046;2023-05-10T00:18:42;6.13;;;5.40;;
35114;SDS011;21292;52.416;13.046;2023-05-10T00:21:10;8.55;;;4.82;;
35114;SDS011;21292;52.416;13.046;2023-05-10T00:23:40;9.30;;;5.63;;
35114;SDS011;21292;52.416;13.046;2023-05-10T00:26:09;8.57;;;5.35;;
35114;SDS011;21292;52.416;13.046;2023-05-10T00:28:37;7.43;;;5.65;;
35114;SDS011;21292;52.416;13.046;2023-05-10T00:31:06;8.23;;;5.72;;
35114;SDS011;21292;52.416;13.046;2023-05-10T00:33:34;8.50;;;5.82;;
35114;SDS011;21292;52.416;13.046;2023-05-10T00:36:02;9.40;;;5.28;;
35114;SDS011;21292;52.416;13.046;2023-05-10T00:38:34;9.93;;;5.30;;
35114;SDS011;21292;52.416;13.046;2023-05-10T00:41:04;13.10;;;5.68;;
35114;SDS011;21292;52.416;13.046;2023-05-10T00:43:33;8.32;;;5.50;;
35114;SDS011;21292;52.416;13.046;2023-05-10T00:46:02;10.13;;;5.47;;
35114;SDS011;21292;52.416;13.046;2023-05-10T00:48:30;7.93;;;5.80;;
35114;SDS011;21292;52.416;13.046;2023-05-10T00:50:58;9.65;;;6.03;;
35114;SDS011;21292;52.416;13.046;2023-05-10T00:53:27;8.43;;;5.18;;
35114;SDS011;21292;52.416;13.046;2023-05-10T00:55:55;12.70;;;5.78;;
35114;SDS011;21292;52.416;13.046;2023-05-10T00:58:25;11.45;;;6.32;;
35114;SDS011;21292;52.416;13.046;2023-05-10T01:00:55;7.20;;;5.53;;
35114;SDS011;21292;52.416;13.046;2023-05-10T01:03:24;10.77;;;6.28;;
35114;SDS011;21292;52.416;13.046;2023-05-10T01:05:53;10.57;;;5.57;;
35114;SDS011;21292;52.416;13.046;2023-05-10T01:08:21;9.43;;;6.38;;
35114;SDS011;21292;52.416;13.046;2023-05-10T01:10:52;7.82;;;5.47;;
35114;SDS011;21292;52.416;13.046;2023-05-10T01:13:28;8.77;;;5.40;;
35114;SDS011;21292;52.416;13.046;2023-05-10T01:16:00;9.80;;;5.93;;
35114;SDS011;21292;52.416;13.046;2023-05-10T01:18:30;11.30;;;5.55;;
35114;SDS011;21292;52.416;13.046;2023-05-10T01:21:01;8.52;;;5.32;;
35114;SDS011;21292;52.416;13.046;2023-05-10T01:23:36;7.32;;;5.70;;
35114;SDS011;21292;52.416;13.046;2023-05-10T01:26:23;9.07;;;6.50;;
35114;SDS011;21292;52.416;13.046;2023-05-10T01:29:18;9.25;;;6.75;;
35114;SDS011;21292;52.416;13.046;2023-05-10T01:31:59;7.40;;;5.55;;
35114;SDS011;21292;52.416;13.046;2023-05-10T01:34:34;7.78;;;6.00;;
35114;SDS011;21292;52.416;13.046;2023-05-10T01:37:06;8.23;;;5.75;;
35114;SDS011;21292;52.416;13.046;2023-05-10T01:39:40;8.98;;;5.88;;
35114;SDS011;21292;52.416;13.046;2023-05-10T01:42:14;6.88;;;5.47;;
35114;SDS011;21292;52.416;13.046;2023-05-10T01:44:51;8.02;;;5.82;;
35114;SDS011;21292;52.416;13.046;2023-05-10T01:47:27;6.95;;;5.88;;
35114;SDS011;21292;52.416;13.046;2023-05-10T01:50:01;9.70;;;6.20;;
35114;SDS011;21292;52.416;13.046;2023-05-10T01:52:32;7.47;;;6.10;;
35114;SDS011;21292;52.416;13.046;2023-05-10T01:55:05;10.05;;;6.40;;
35114;SDS011;21292;52.416;13.046;2023-05-10T01:57:36;8.23;;;5.77;;
35114;SDS011;21292;52.416;13.046;2023-05-10T02:00:07;7.47;;;5.90;;
35114;SDS011;21292;52.416;13.046;2023-05-10T02:02:44;6.75;;;5.85;;
35114;SDS011;21292;52.416;13.046;2023-05-10T02:05:14;10.90;;;6.50;;
35114;SDS011;21292;52.416;13.046;2023-05-10T02:07:44;8.18;;;6.07;;
35114;SDS011;21292;52.416;13.046;2023-05-10T02:10:17;9.52;;;5.80;;
35114;SDS011;21292;52.416;13.046;2023-05-10T02:12:47;9.43;;;6.13;;
35114;SDS011;21292;52.416;13.046;2023-05-10T02:15:17;7.85;;;6.38;;
35114;SDS011;21292;52.416;13.046;2023-05-10T02:17:49;13.15;;;6.75;;
35114;SDS011;21292;52.416;13.046;2023-05-10T02:20:17;9.77;;;6.95;;
35114;SDS011;21292;52.416;13.046;2023-05-10T02:22:48;8.20;;;6.40;;
35114;SDS011;21292;52.416;13.046;2023-05-10T02:25:19;15.50;;;6.65;;
35114;SDS011;21292;52.416;13.046;2023-05-10T02:27:48;14.82;;;7.03;;
35114;SDS011;21292;52.416;13.046;2023-05-10T02:30:16;10.35;;;6.30;;
35114;SDS011;21292;52.416;13.046;2023-05-10T02:32:46;12.00;;;6.57;;
35114;SDS011;21292;52.416;13.046;2023-05-10T02:35:16;8.95;;;6.78;;
35114;SDS011;21292;52.416;13.046;2023-05-10T02:37:45;12.18;;;7.07;;
35114;SDS011;21292;52.416;13.046;2023-05-10T02:40:14;9.85;;;7.07;;
35114;SDS011;21292;52.416;13.046;2023-05-10T02:42:44;10.70;;;7.07;;
35114;SDS011;21292;52.416;13.046;2023-05-10T02:45:17;10.18;;;6.45;;
35114;SDS011;21292;52.416;13.046;2023-05-10T02:47:46;12.70;;;7.18;;
35114;SDS011;21292;52.416;13.046;2023-05-10T02:50:15;8.50;;;6.15;;
35114;SDS011;21292;52.416;13.046;2023-05-10T02:52:46;13.18;;;6.85;;
35114;SDS011;21292;52.416;13.046;2023-05-10T02:55:16;12.60;;;7.53;;
35114;SDS011;21292;52.416;13.046;2023-05-10T02:57:50;13.23;;;7.22;;
35114;SDS011;21292;52.416;13.046;2023-05-10T03:00:21;10.90;;;7.47;;
35114;SDS011;21292;52.416;13.046;2023-05-10T03:02:51;10.90;;;7.05;;
35114;SDS011;21292;52.416;13.046;2023-05-10T03:05:21;9.82;;;6.78;;
35114;SDS011;21292;52.416;13.046;2023-05-10T03:07:51;11.05;;;7.70;;
35114;SDS011;21292;52.416;13.046;2023-05-10T03:10:22;11.52;;;6.97;;
35114;SDS011;21292;52.416;13.046;2023-05-10T03:12:57;10.02;;;7.22;;
35114;SDS011;21292;52.416;13.046;2023-05-10T03:15:37;9.95;;;7.93;;
35114;SDS011;21292;52.416;13.046;2023-05-10T03:18:12;9.73;;;7.00;;
35114;SDS011;21292;52.416;13.046;2023-05-10T03:20:46;11.52;;;8.02;;
35114;SDS011;21292;52.416;13.046;2023-05-10T03:23:20;9.55;;;7.32;;
35114;SDS011;21292;52.416;13.046;2023-05-10T03:25:49;10.35;;;6.88;;
35114;SDS011;21292;52.416;13.046;2023-05-10T03:28:22;12.57;;;6.63;;
35114;SDS011;21292;52.416;13.046;2023-05-10T03:30:54;9.88;;;7.45;;
35114;SDS011;21292;52.416;13.046;2023-05-10T03:33:23;12.77;;;7.80;;
35114;SDS011;21292;52.416;13.046;2023-05-10T03:35:52;12.18;;;7.57;;
35114;SDS011;21292;52.416;13.046;2023-05-10T03:38:21;11.20;;;7.30;;
35114;SDS011;21292;52.416;13.046;2023-05-10T03:40:52;14.45;;;7.55;;
35114;SDS011;21292;52.416;13.046;2023-05-10T03:43:21;10.45;;;6.72;;
35114;SDS011;21292;52.416;13.046;2023-05-10T03:45:50;11.00;;;7.55;;
35114;SDS011;21292;52.416;13.046;2023-05-10T03:48:18;10.10;;;6.88;;
35114;SDS011;21292;52.416;13.046;2023-05-10T03:50:47;11.63;;;7.07;;
35114;SDS011;21292;52.416;13.046;2023-05-10T03:53:18;12.13;;;7.40;;
35114;SDS011;21292;52.416;13.046;2023-05-10T03:55:46;12.10;;;6.93;;
35114;SDS011;21292;52.416;13.046;2023-05-10T03:58:16;9.15;;;6.65;;
35114;SDS011;21292;52.416;13.046;2023-05-10T04:00:45;14.57;;;7.30;;
35114;SDS011;21292;52.416;13.046;2023-05-10T04:03:13;10.02;;;6.90;;
35114;SDS011;21292;52.416;13.046;2023-05-10T04:05:43;10.05;;;6.70;;
35114;SDS011;21292;52.416;13.046;2023-05-10T04:08:11;10.65;;;6.63;;
35114;SDS011;21292;52.416;13.046;2023-05-10T04:10:46;9.68;;;7.05;;
35114;SDS011;21292;52.416;13.046;2023-05-10T04:13:17;9.43;;;6.53;;
35114;SDS011;21292;52.416;13.046;2023-05-10T04:15:45;9.88;;;7.00;;
35114;SDS011;21292;52.416;13.046;2023-05-10T04:18:14;8.05;;;6.25;;
35114;SDS011;21292;52.416;13.046;2023-05-10T04:20:44;9.38;;;6.80;;
35114;SDS011;21292;52.416;13.046;2023-05-10T04:23:12;13.20;;;6.90;;
35114;SDS011;21292;52.416;13.046;2023-05-10T04:25:44;8.75;;;6.15;;
35114;SDS011;21292;52.416;13.046;2023-05-10T04:28:14;8.40;;;5.63;;
35114;SDS011;21292;52.416;13.046;2023-05-10T04:30:44;7.72;;;5.65;;
35114;SDS011;21292;52.416;13.046;2023-05-10T04:33:14;9.35;;;6.07;;
35114;SDS011;21292;52.416;13.046;2023-05-10T04:35:43;9.60;;;6.03;;
35114;SDS011;21292;52.416;13.046;2023-05-10T04:38:12;8.80;;;5.90;;
35114;SDS011;21292;52.416;13.046;2023-05-10T04:40:40;7.82;;;6.00;;
35114;SDS011;21292;52.416;13.046;2023-05-10T04:43:10;9.48;;;5.55;;
35114;SDS011;21292;52.416;13.046;2023-05-10T04:45:38;15.57;;;6.10;;
35114;SDS011;21292;52.416;13.046;2023-05-10T04:48:07;12.98;;;6.07;;
35114;SDS011;21292;52.416;13.046;2023-05-10T04:50:35;7.72;;;5.32;;
35114;SDS011;21292;52.416;13.046;2023-05-10T04:53:06;9.88;;;6.00;;
35114;SDS011;21292;52.416;13.046;2023-05-10T04:55:35;9.70;;;5.82;;
35114;SDS011;21292;52.416;13.046;2023-05-10T04:58:05;9.63;;;5.85;;
35114;SDS011;21292;52.416;13.046;2023-05-10T05:00:35;7.97;;;5.72;;
35114;SDS011;21292;52.416;13.046;2023-05-10T05:03:05;8.75;;;5.22;;
35114;SDS011;21292;52.416;13.046;2023-05-10T05:05:33;7.78;;;5.00;;
35114;SDS011;21292;52.416;13.046;2023-05-10T05:08:02;9.52;;;5.65;;
35114;SDS011;21292;52.416;13.046;2023-05-10T05:10:32;7.68;;;4.97;;
35114;SDS011;21292;52.416;13.046;2023-05-10T05:13:00;8.85;;;5.38;;
35114;SDS011;21292;52.416;13.046;2023-05-10T05:15:29;10.70;;;5.03;;
35114;SDS011;21292;52.416;13.046;2023-05-10T05:17:59;8.23;;;4.47;;
35114;SDS011;21292;52.416;13.046;2023-05-10T05:20:27;8.35;;;5.10;;
35114;SDS011;21292;52.416;13.046;2023-05-10T05:23:11;9.38;;;4.78;;
35114;SDS011;21292;52.416;13.046;2023-05-10T05:25:40;5.88;;;4.63;;
35114;SDS011;21292;52.416;13.046;2023-05-10T05:28:09;13.65;;;5.00;;
35114;SDS011;21292;52.416;13.046;2023-05-10T05:30:37;7.68;;;5.07;;
35114;SDS011;21292;52.416;13.046;2023-05-10T05:33:08;8.80;;;5.05;;
35114;SDS011;21292;52.416;13.046;2023-05-10T05:35:36;11.27;;;4.60;;
35114;SDS011;21292;52.416;13.046;2023-05-10T05:38:04;7.13;;;4.93;;
35114;SDS011;21292;52.416;13.046;2023-05-10T05:40:33;5.90;;;3.92;;
35114;SDS011;21292;52.416;13.046;2023-05-10T05:43:01;6.78;;;4.68;;
35114;SDS011;21292;52.416;13.046;2023-05-10T05:45:30;7.00;;;3.97;;
35114;SDS011;21292;52.416;13.046;2023-05-10T05:47:58;7.90;;;4.53;;
35114;SDS011;21292;52.416;13.046;2023-05-10T05:50:30;6.03;;;4.43;;
35114;SDS011;21292;52.416;13.046;2023-05-10T05:52:59;7.07;;;4.23;;
35114;SDS011;21292;52.416;13.046;2023-05-10T05:55:29;12.13;;;4.50;;
35114;SDS011;21292;52.416;13.046;2023-05-10T05:57:58;6.38;;;4.60;;
35114;SDS011;21292;52.416;13.046;2023-05-10T06:00:27;6.20;;;4.35;;
35114;SDS011;21292;52.416;13.046;2023-05-10T06:02:57;9.95;;;4.53;;
35114;SDS011;21292;52.416;13.046;2023-05-10T06:05:27;7.13;;;3.80;;
35114;SDS011;21292;52.416;13.046;2023-05-10T06:07:57;6.47;;;3.85;;
35114;SDS011;21292;52.416;13.046;2023-05-10T06:10:29;6.45;;;3.95;;
35114;SDS011;21292;52.416;13.046;2023-05-10T06:12:58;8.65;;;4.45;;
35114;SDS011;21292;52.416;13.046;2023-05-10T06:15:28;6.68;;;3.72;;
35114;SDS011;21292;52.416;13.046;2023-05-10T06:17:56;4.47;;;3.53;;
35114;SDS011;21292;52.416;13.046;2023-05-10T06:20:25;7.93;;;4.32;;
35114;SDS011;21292;52.416;13.046;2023-05-10T06:22:53;8.80;;;3.88;;
35114;SDS011;21292;52.416;13.046;2023-05-10T06:25:23;12.27;;;4.63;;
35114;SDS011;21292;52.416;13.046;2023-05-10T06:27:52;4.78;;;4.28;;
35114;SDS011;21292;52.416;13.046;2023-05-10T06:30:24;6.13;;;3.80;;
35114;SDS011;21292;52.416;13.046;2023-05-10T06:32:56;8.97;;;4.03;;
35114;SDS011;21292;52.416;13.046;2023-05-10T06:35:24;10.88;;;4.22;;
35114;SDS011;21292;52.416;13.046;2023-05-10T06:37:53;4.95;;;4.00;;
35114;SDS011;21292;52.416;13.046;2023-05-10T06:40:23;5.28;;;3.85;;
35114;SDS011;21292;52.416;13.046;2023-05-10T06:42:54;8.43;;;3.60;;
35114;SDS011;21292;52.416;13.046;2023-05-10T06:45:23;5.05;;;3.88;;
35114;SDS011;21292;52.416;13.046;2023-05-10T06:47:52;4.05;;;3.53;;
35114;SDS011;21292;52.416;13.046;2023-05-10T06:50:22;6.82;;;3.97;;
35114;SDS011;21292;52.416;13.046;2023-05-10T06:52:51;8.63;;;4.22;;
35114;SDS011;21292;52.416;13.046;2023-05-10T06:55:19;6.70;;;3.70;;
35114;SDS011;21292;52.416;13.046;2023-05-10T06:57:49;10.30;;;4.30;;
35114;SDS011;21292;52.416;13.046;2023-05-10T07:00:18;4.75;;;3.30;;
35114;SDS011;21292;52.416;13.046;2023-05-10T07:02:47;5.57;;;3.70;;
35114;SDS011;21292;52.416;13.046;2023-05-10T07:05:16;5.07;;;3.92;;
35114;SDS011;21292;52.416;13.046;2023-05-10T07:07:47;7.40;;;3.45;;
35114;SDS011;21292;52.416;13.046;2023-05-10T07:10:15;7.63;;;3.67;;
35114;SDS011;21292;52.416;13.046;2023-05-10T07:12:44;5.45;;;3.70;;
35114;SDS011;21292;52.416;13.046;2023-05-10T07:15:14;5.00;;;4.15;;
35114;SDS011;21292;52.416;13.046;2023-05-10T07:17:43;7.20;;;3.97;;
35114;SDS011;21292;52.416;13.046;2023-05-10T07:20:12;8.20;;;4.00;;
35114;SDS011;21292;52.416;13.046;2023-05-10T07:22:41;4.30;;;3.50;;
35114;SDS011;21292;52.416;13.046;2023-05-10T07:25:09;6.45;;;3.72;;
35114;SDS011;21292;52.416;13.046;2023-05-10T07:27:38;6.63;;;3.78;;
35114;SDS011;21292;52.416;13.046;2023-05-10T07:30:07;5.10;;;3.75;;
35114;SDS011;21292;52.416;13.046;2023-05-10T07:32:38;10.18;;;3.70;;
35114;SDS011;21292;52.416;13.046;2023-05-10T07:35:08;4.60;;;3.45;;
35114;SDS011;21292;52.416;13.046;2023-05-10T07:37:37;5.20;;;3.50;;
35114;SDS011;21292;52.416;13.046;2023-05-10T07:40:06;5.63;;;3.40;;
35114;SDS011;21292;52.416;13.046;2023-05-10T07:42:36;5.95;;;3.78;;
35114;SDS011;21292;52.416;13.046;2023-05-10T07:45:05;6.30;;;3.70;;
35114;SDS011;21292;52.416;13.046;2023-05-10T07:47:38;4.67;;;3.33;;
35114;SDS011;21292;52.416;13.046;2023-05-10T07:50:07;5.78;;;3.60;;
35114;SDS011;21292;52.416;13.046;2023-05-10T07:52:35;7.97;;;4.20;;
35114;SDS011;21292;52.416;13.046;2023-05-10T07:55:04;6.53;;;3.88;;
35114;SDS011;21292;52.416;13.046;2023-05-10T07:57:34;6.68;;;3.58;;
35114;SDS011;21292;52.416;13.046;2023-05-10T08:00:02;6.50;;;3.28;;
35114;SDS011;21292;52.416;13.046;2023-05-10T08:02:31;5.90;;;3.42;;
35114;SDS011;21292;52.416;13.046;2023-05-10T08:05:04;4.65;;;3.70;;
35114;SDS011;21292;52.416;13.046;2023-05-10T08:10:06;5.57;;;4.00;;
35114;SDS011;21292;52.416;13.046;2023-05-10T08:12:38;5.13;;;3.45;;
35114;SDS011;21292;52.416;13.046;2023-05-10T08:15:07;4.80;;;3.85;;
35114;SDS011;21292;52.416;13.046;2023-05-10T08:17:36;8.68;;;4.03;;
35114;SDS011;21292;52.416;13.046;2023-05-10T08:20:08;6.22;;;3.70;;
35114;SDS011;21292;52.416;13.046;2023-05-10T08:22:41;5.45;;;3.80;;
35114;SDS011;21292;52.416;13.046;2023-05-10T08:25:14;5.90;;;3.45;;
35114;SDS011;21292;52.416;13.046;2023-05-10T08:27:43;5.55;;;3.58;;
35114;SDS011;21292;52.416;13.046;2023-05-10T08:30:11;3.80;;;3.30;;
35114;SDS011;21292;52.416;13.046;2023-05-10T08:35:23;7.03;;;3.90;;
35114;SDS011;21292;52.416;13.046;2023-05-10T08:37:54;7.05;;;3.72;;
35114;SDS011;21292;52.416;13.046;2023-05-10T08:40:24;5.57;;;3.50;;
35114;SDS011;21292;52.416;13.046;2023-05-10T08:42:55;5.57;;;3.42;;
35114;SDS011;21292;52.416;13.046;2023-05-10T08:45:27;7.95;;;3.63;;
35114;SDS011;21292;52.416;13.046;2023-05-10T08:48:03;7.75;;;3.63;;
35114;SDS011;21292;52.416;13.046;2023-05-10T08:50:34;4.45;;;3.63;;
35114;SDS011;21292;52.416;13.046;2023-05-10T08:53:06;4.35;;;3.45;;
35114;SDS011;21292;52.416;13.046;2023-05-10T08:55:36;5.78;;;2.88;;
35114;SDS011;21292;52.416;13.046;2023-05-10T08:58:06;5.47;;;3.15;;
35114;SDS011;21292;52.416;13.046;2023-05-10T09:00:35;9.15;;;3.33;;
35114;SDS011;21292;52.416;13.046;2023-05-10T09:03:05;4.45;;;3.28;;
35114;SDS011;21292;52.416;13.046;2023-05-10T09:05:35;10.10;;;3.30;;
35114;SDS011;21292;52.416;13.046;2023-05-10T09:08:04;4.05;;;3.22;;
35114;SDS011;21292;52.416;13.046;2023-05-10T09:10:33;4.88;;;3.15;;
35114;SDS011;21292;52.416;13.046;2023-05-10T09:13:02;6.97;;;3.38;;
35114;SDS011;21292;52.416;13.046;2023-05-10T09:15:32;4.97;;;3.13;;
35114;SDS011;21292;52.416;13.046;2023-05-10T09:18:00;4.93;;;3.10;;
35114;SDS011;21292;52.416;13.046;2023-05-10T09:20:30;6.95;;;3.58;;
35114;SDS011;21292;52.416;13.046;2023-05-10T09:23:00;7.85;;;3.22;;
35114;SDS011;21292;52.416;13.046;2023-05-10T09:25:29;8.23;;;4.30;;
35114;SDS011;21292;52.416;13.046;2023-05-10T09:28:00;4.97;;;3.47;;
35114;SDS011;21292;52.416;13.046;2023-05-10T09:30:30;7.13;;;3.08;;
35114;SDS011;21292;52.416;13.046;2023-05-10T09:32:59;4.95;;;3.53;;
35114;SDS011;21292;52.416;13.046;2023-05-10T09:35:29;7.40;;;3.70;;
35114;SDS011;21292;52.416;13.046;2023-05-10T09:38:04;6.65;;;3.42;;
35114;SDS011;21292;52.416;13.046;2023-05-10T09:40:35;7.40;;;3.47;;
35114;SDS011;21292;52.416;13.046;2023-05-10T09:43:07;8.05;;;3.30;;
35114;SDS011;21292;52.416;13.046;2023-05-10T09:45:36;6.55;;;3.13;;
35114;SDS011;21292;52.416;13.046;2023-05-10T09:48:05;4.47;;;2.90;;
35114;SDS011;21292;52.416;13.046;2023-05-10T09:50:33;6.40;;;3.40;;
35114;SDS011;21292;52.416;13.046;2023-05-10T09:53:03;7.53;;;3.40;;
35114;SDS011;21292;52.416;13.046;2023-05-10T09:55:39;3.58;;;2.80;;
35114;SDS011;21292;52.416;13.046;2023-05-10T09:58:11;6.35;;;3.00;;
35114;SDS011;21292;52.416;13.046;2023-05-10T10:00:41;4.68;;;2.67;;
35114;SDS011;21292;52.416;13.046;2023-05-10T10:03:12;3.83;;;2.65;;
35114;SDS011;21292;52.416;13.046;2023-05-10T10:05:42;6.18;;;3.05;;
35114;SDS011;21292;52.416;13.046;2023-05-10T10:08:13;8.10;;;2.67;;
35114;SDS011;21292;52.416;13.046;2023-05-10T10:10:51;8.00;;;2.55;;
35114;SDS011;21292;52.416;13.046;2023-05-10T10:13:19;5.75;;;2.55;;
35114;SDS011;21292;52.416;13.046;2023-05-10T10:15:48;3.42;;;2.70;;
35114;SDS011;21292;52.416;13.046;2023-05-10T10:18:18;5.68;;;2.40;;
35114;SDS011;21292;52.416;13.046;2023-05-10T10:20:50;3.72;;;2.90;;
35114;SDS011;21292;52.416;13.046;2023-05-10T10:23:22;9.73;;;2.85;;
35114;SDS011;21292;52.416;13.046;2023-05-10T10:25:50;7.57;;;2.92;;
35114;SDS011;21292;52.416;13.046;2023-05-10T10:28:22;4.22;;;2.42;;
35114;SDS011;21292;52.416;13.046;2023-05-10T10:30:56;5.22;;;2.85;;
35114;SDS011;21292;52.416;13.046;2023-05-10T10:33:36;4.40;;;2.67;;
35114;SDS011;21292;52.416;13.046;2023-05-10T10:36:08;4.60;;;2.65;;
35114;SDS011;21292;52.416;13.046;2023-05-10T10:41:27;5.15;;;3.17;;
35114;SDS011;21292;52.416;13.046;2023-05-10T10:46:59;4.38;;;2.80;;
35114;SDS011;21292;52.416;13.046;2023-05-10T10:49:30;6.18;;;2.60;;
35114;SDS011;21292;52.416;13.046;2023-05-10T10:52:15;4.55;;;2.53;;
35114;SDS011;21292;52.416;13.046;2023-05-10T10:54:51;3.50;;;2.60;;
35114;SDS011;21292;52.416;13.046;2023-05-10T10:57:20;8.18;;;3.15;;
35114;SDS011;21292;52.416;13.046;2023-05-10T10:59:49;6.35;;;2.75;;
35114;SDS011;21292;52.416;13.046;2023-05-10T11:05:23;6.28;;;2.47;;
35114;SDS011;21292;52.416;13.046;2023-05-10T11:07:53;6.75;;;2.53;;
35114;SDS011;21292;52.416;13.046;2023-05-10T11:10:23;5.13;;;2.70;;
35114;SDS011;21292;52.416;13.046;2023-05-10T11:12:53;3.80;;;2.38;;
35114;SDS011;21292;52.416;13.046;2023-05-10T11:15:28;5.40;;;2.85;;
35114;SDS011;21292;52.416;13.046;2023-05-10T11:17:56;4.85;;;2.67;;
35114;SDS011;21292;52.416;13.046;2023-05-10T11:20:27;5.47;;;2.75;;
35114;SDS011;21292;52.416;13.046;2023-05-10T11:23:10;3.20;;;2.28;;
35114;SDS011;21292;52.416;13.046;2023-05-10T11:25:44;5.07;;;2.50;;
35114;SDS011;21292;52.416;13.046;2023-05-10T11:28:13;5.53;;;2.58;;
35114;SDS011;21292;52.416;13.046;2023-05-10T11:30:43;5.93;;;2.85;;
35114;SDS011;21292;52.416;13.046;2023-05-10T11:33:15;7.47;;;2.90;;
35114;SDS011;21292;52.416;13.046;2023-05-10T11:35:44;5.43;;;2.83;;
35114;SDS011;21292;52.416;13.046;2023-05-10T11:38:14;5.72;;;2.70;;
35114;SDS011;21292;52.416;13.046;2023-05-10T11:40:43;4.28;;;2.72;;
35114;SDS011;21292;52.416;13.046;2023-05-10T11:43:11;3.72;;;2.78;;
35114;SDS011;21292;52.416;13.046;2023-05-10T11:45:40;3.75;;;2.95;;
35114;SDS011;21292;52.416;13.046;2023-05-10T11:48:09;8.55;;;3.28;;
35114;SDS011;21292;52.416;13.046;2023-05-10T11:50:38;3.70;;;2.67;;
35114;SDS011;21292;52.416;13.046;2023-05-10T11:53:06;3.47;;;2.25;;
35114;SDS011;21292;52.416;13.046;2023-05-10T11:55:34;4.65;;;2.65;;
35114;SDS011;21292;52.416;13.046;2023-05-10T11:58:03;2.63;;;2.20;;
35114;SDS011;21292;52.416;13.046;2023-05-10T12:00:32;5.85;;;2.85;;
35114;SDS011;21292;52.416;13.046;2023-05-10T12:03:00;5.15;;;2.70;;
35114;SDS011;21292;52.416;13.046;2023-05-10T12:05:31;4.25;;;3.50;;
35114;SDS011;21292;52.416;13.046;2023-05-10T12:08:12;9.88;;;2.92;;
35114;SDS011;21292;52.416;13.046;2023-05-10T12:10:41;3.00;;;2.50;;
35114;SDS011;21292;52.416;13.046;2023-05-10T12:13:14;3.70;;;2.53;;
35114;SDS011;21292;52.416;13.046;2023-05-10T12:15:43;5.88;;;2.78;;
35114;SDS011;21292;52.416;13.046;2023-05-10T12:18:11;3.10;;;2.42;;
35114;SDS011;21292;52.416;13.046;2023-05-10T12:20:40;5.53;;;2.40;;
35114;SDS011;21292;52.416;13.046;2023-05-10T12:23:09;4.32;;;2.28;;
35114;SDS011;21292;52.416;13.046;2023-05-10T12:25:39;3.58;;;2.63;;
35114;SDS011;21292;52.416;13.046;2023-05-10T12:28:09;3.90;;;2.40;;
35114;SDS011;21292;52.416;13.046;2023-05-10T12:30:41;6.18;;;2.45;;
35114;SDS011;21292;52.416;13.046;2023-05-10T12:33:10;6.03;;;2.75;;
35114;SDS011;21292;52.416;13.046;2023-05-10T12:35:44;6.05;;;2.70;;
35114;SDS011;21292;52.416;13.046;2023-05-10T12:38:24;6.30;;;2.97;;
35114;SDS011;21292;52.416;13.046;2023-05-10T12:40:59;5.18;;;2.70;;
35114;SDS011;21292;52.416;13.046;2023-05-10T12:43:28;8.65;;;3.45;;
35114;SDS011;21292;52.416;13.046;2023-05-10T12:46:05;5.95;;;3.10;;
35114;SDS011;21292;52.416;13.046;2023-05-10T12:48:34;4.53;;;2.90;;
35114;SDS011;21292;52.416;13.046;2023-05-10T12:51:03;5.13;;;2.15;;
35114;SDS011;21292;52.416;13.046;2023-05-10T12:53:31;4.15;;;2.45;;
35114;SDS011;21292;52.416;13.046;2023-05-10T12:56:01;4.18;;;2.75;;
35114;SDS011;21292;52.416;13.046;2023-05-10T12:58:29;3.90;;;2.67;;
35114;SDS011;21292;52.416;13.046;2023-05-10T13:01:02;5.43;;;3.00;;
35114;SDS011;21292;52.416;13.046;2023-05-10T13:03:33;6.90;;;2.53;;
35114;SDS011;21292;52.416;13.046;2023-05-10T13:06:01;7.68;;;2.88;;
35114;SDS011;21292;52.416;13.046;2023-05-10T13:08:29;6.85;;;2.80;;
35114;SDS011;21292;52.416;13.046;2023-05-10T13:11:00;3.92;;;2.67;;
35114;SDS011;21292;52.416;13.046;2023-05-10T13:13:29;4.28;;;2.65;;
35114;SDS011;21292;52.416;13.046;2023-05-10T13:15:57;3.00;;;2.53;;
35114;SDS011;21292;52.416;13.046;2023-05-10T13:18:27;5.38;;;2.67;;
35114;SDS011;21292;52.416;13.046;2023-05-10T13:20:56;5.07;;;2.50;;
35114;SDS011;21292;52.416;13.046;2023-05-10T13:23:24;9.05;;;2.80;;
35114;SDS011;21292;52.416;13.046;2023-05-10T13:25:54;7.93;;;3.00;;
35114;SDS011;21292;52.416;13.046;2023-05-10T13:28:22;6.88;;;3.00;;
35114;SDS011;21292;52.416;13.046;2023-05-10T13:30:52;4.95;;;2.75;;
35114;SDS011;21292;52.416;13.046;2023-05-10T13:33:20;6.32;;;2.80;;
35114;SDS011;21292;52.416;13.046;2023-05-10T13:35:52;4.32;;;2.78;;
35114;SDS011;21292;52.416;13.046;2023-05-10T13:38:21;4.13;;;2.85;;
35114;SDS011;21292;52.416;13.046;2023-05-10T13:40:49;4.60;;;2.40;;
35114;SDS011;21292;52.416;13.046;2023-05-10T13:43:41;2.67;;;2.47;;
35114;SDS011;21292;52.416;13.046;2023-05-10T13:46:15;5.50;;;2.75;;
35114;SDS011;21292;52.416;13.046;2023-05-10T13:48:59;4.57;;;2.65;;
35114;SDS011;21292;52.416;13.046;2023-05-10T13:51:33;3.80;;;2.50;;
35114;SDS011;21292;52.416;13.046;2023-05-10T13:54:02;2.65;;;2.40;;
35114;SDS011;21292;52.416;13.046;2023-05-10T13:56:30;6.68;;;2.58;;
35114;SDS011;21292;52.416;13.046;2023-05-10T13:58:59;3.75;;;2.70;;
35114;SDS011;21292;52.416;13.046;2023-05-10T14:01:27;2.83;;;2.55;;
35114;SDS011;21292;52.416;13.046;2023-05-10T14:03:56;4.05;;;2.55;;
35114;SDS011;21292;52.416;13.046;2023-05-10T14:06:26;4.65;;;2.60;;
35114;SDS011;21292;52.416;13.046;2023-05-10T14:08:58;5.72;;;3.47;;
35114;SDS011;21292;52.416;13.046;2023-05-10T14:11:27;4.90;;;3.00;;
35114;SDS011;21292;52.416;13.046;2023-05-10T14:13:55;4.28;;;2.85;;
35114;SDS011;21292;52.416;13.046;2023-05-10T14:16:23;4.63;;;2.63;;
35114;SDS011;21292;52.416;13.046;2023-05-10T14:18:53;3.08;;;2.42;;
35114;SDS011;21292;52.416;13.046;2023-05-10T14:21:21;9.20;;;2.63;;
35114;SDS011;21292;52.416;13.046;2023-05-10T14:23:50;3.83;;;2.90;;
35114;SDS011;21292;52.416;13.046;2023-05-10T14:26:19;4.45;;;2.53;;
35114;SDS011;21292;52.416;13.046;2023-05-10T14:28:49;4.97;;;2.53;;
35114;SDS011;21292;52.416;13.046;2023-05-10T14:31:18;4.20;;;2.78;;
35114;SDS011;21292;52.416;13.046;2023-05-10T14:33:47;3.58;;;3.05;;
35114;SDS011;21292;52.416;13.046;2023-05-10T14:36:19;6.00;;;2.83;;
35114;SDS011;21292;52.416;13.046;2023-05-10T14:38:47;3.85;;;3.10;;
35114;SDS011;21292;52.416;13.046;2023-05-10T14:41:15;3.22;;;2.53;;
35114;SDS011;21292;52.416;13.046;2023-05-10T14:43:47;2.97;;;2.67;;
35114;SDS011;21292;52.416;13.046;2023-05-10T14:46:17;5.22;;;2.67;;
35114;SDS011;21292;52.416;13.046;2023-05-10T14:48:46;5.85;;;2.92;;
35114;SDS011;21292;52.416;13.046;2023-05-10T14:51:15;3.28;;;2.40;;
35114;SDS011;21292;52.416;13.046;2023-05-10T14:53:45;3.63;;;2.83;;
35114;SDS011;21292;52.416;13.046;2023-05-10T14:56:14;6.32;;;2.80;;
35114;SDS011;21292;52.416;13.046;2023-05-10T14:58:44;3.03;;;2.72;;
35114;SDS011;21292;52.416;13.046;2023-05-10T15:01:13;5.97;;;2.90;;
35114;SDS011;21292;52.416;13.046;2023-05-10T15:03:42;5.82;;;2.80;;
35114;SDS011;21292;52.416;13.046;2023-05-10T15:06:11;5.22;;;3.00;;